Pagrindinis puslapis
METAR-TAF:

METAR-TAF

Oro uostai :

Le Tontutos tarptautinis oro uostas

Numėja La Tontouta, Naujoji Kaledonija

platuma: 22-01S, ilguma: 166-13E, Aukštis: 16 m

Dabartinis oras

Ataskaita buvo paskelbta 25 minutes, ne 05:00 UTC
Vėjas 5 kt iš Pietų/Pietryčių
Temperatūra 25°C
Drėgmė 69%
Slėgis 1014 hPa
Matomumas 10 km arba daugiau
Išsisklaidę debesys ne aukštis 4300 ft
Su prošvaistėmis ne aukštis 5200 ft

METAR: NWWW 290500Z AUTO 16005KT 9999 SCT043 BKN052 25/19 Q1014 NOSIG

Laikas: 16:25 (05:25 UTC)

Prognozė

Ataskaita buvo paskelbta 2 valandos ir 43 minutes, ne 02:42 UTC
Prognozė galioja nuo 29 metu 02 UTC su 29 metu 24 UTC
Vėjas 10 kt iš Pietų
Matomumas 10 km arba daugiau
Mažai debesys ne aukštis 4000 ft

TAF: NWWW 290242Z 2902/2924 18010KT 9999 FEW040

Orai ataskaitas ir orų prognozės (METAR, TAF).

turimą stotys yra geltonos ir raudonos taškus žemėlapyje.

Perkelti pele per norėdami pamatyti stoties vardą.

Tada spustelėkite, norėdami matyti oro stebėjimo ir prognozės.

Norėdami pakeisti žemėlapį: spustelėkite ant žalios mygtukų su juodo kryžiaus žemyn,; žalią mygtuką su brūkšneliu, jei norite nutolinti; arba žalių rodyklių gretimoms žemėlapius.


METAR-TAF: